Capitol Logistics 958

Operating for DHL



EDDK
Cologne Bonn Airport
Cologne, DE
LGAV
Eleftherios Venizelos International Airport
Athens, GR

Route Details

Aircraft Information
Group: European Fleet
Types: A30F,A31F,B738
Route Data
Demand: M
Distance: 1056nm
Duration: 2h 39m
Recm'd Route: KUMI5D KUMIK L603 TESGA ESATI DETEV DINKU BESNI LATLO OBEDI BERTA ROLBA MEDUX UM867 KOGAT TALAS UM749 ROPOX ROPO1B
Origin Wx: EDDK 242150Z AUTO 14004KT 100V170 9999 SCT047 11/09 Q1012 NOSIG
Dest. Wx: LGAV 242150Z VRB02KT CAVOK 18/15 Q1014 NOSIG
Notes:

Financial History
Total Freight: 367,726lbs
Average Load: 61,288lbs/flt
Fuel Used: 177,859lbs
Avg. Fuel Used: 29,643lbs/flt
Fuel Expense: $74,787
Avg. Fuel Expense: $12,465
Avg. Fuel Cost: $0.42/lbs
Total Gross Income: $766,985
Pilot Pay: $1,464
Total Expenses: $110,413
Total Revenue: $578,114
Average Revenue: $127,830.89